sensor_id;sensor_type;location;lat;lon;timestamp;temperature;humidity
57108;DHT22;42987;52.916;6.542;2022-08-03T00:00:05;19.40;99.90
57108;DHT22;42987;52.916;6.542;2022-08-03T00:02:31;19.40;99.90
57108;DHT22;42987;52.916;6.542;2022-08-03T00:04:57;19.40;99.90
57108;DHT22;42987;52.916;6.542;2022-08-03T00:07:22;19.40;99.90
57108;DHT22;42987;52.916;6.542;2022-08-03T00:09:48;19.40;99.90
57108;DHT22;42987;52.916;6.542;2022-08-03T00:12:15;19.40;99.90
57108;DHT22;42987;52.916;6.542;2022-08-03T00:14:41;19.40;99.90
57108;DHT22;42987;52.916;6.542;2022-08-03T00:17:07;19.40;99.90
57108;DHT22;42987;52.916;6.542;2022-08-03T00:19:33;19.40;99.90
57108;DHT22;42987;52.916;6.542;2022-08-03T00:22:02;19.40;99.90
57108;DHT22;42987;52.916;6.542;2022-08-03T00:24:28;19.40;99.90
57108;DHT22;42987;52.916;6.542;2022-08-03T00:26:55;19.40;99.90
57108;DHT22;42987;52.916;6.542;2022-08-03T00:29:24;19.40;99.90
57108;DHT22;42987;52.916;6.542;2022-08-03T00:31:50;19.40;99.90
57108;DHT22;42987;52.916;6.542;2022-08-03T00:34:16;19.40;99.90
57108;DHT22;42987;52.916;6.542;2022-08-03T00:36:41;19.40;99.90
57108;DHT22;42987;52.916;6.542;2022-08-03T00:39:07;19.40;99.90
57108;DHT22;42987;52.916;6.542;2022-08-03T00:41:33;19.50;99.90
57108;DHT22;42987;52.916;6.542;2022-08-03T00:43:59;19.50;99.90
57108;DHT22;42987;52.916;6.542;2022-08-03T00:46:25;19.50;99.90
57108;DHT22;42987;52.916;6.542;2022-08-03T00:48:51;19.50;99.90
57108;DHT22;42987;52.916;6.542;2022-08-03T00:51:18;19.50;99.90
57108;DHT22;42987;52.916;6.542;2022-08-03T00:53:44;19.60;99.90
57108;DHT22;42987;52.916;6.542;2022-08-03T00:56:13;19.50;99.90
57108;DHT22;42987;52.916;6.542;2022-08-03T00:58:39;19.50;99.90
57108;DHT22;42987;52.916;6.542;2022-08-03T01:01:06;19.50;99.90
57108;DHT22;42987;52.916;6.542;2022-08-03T01:03:32;19.50;99.90
57108;DHT22;42987;52.916;6.542;2022-08-03T01:06:13;19.40;99.90
57108;DHT22;42987;52.916;6.542;2022-08-03T01:08:53;19.40;99.90
57108;DHT22;42987;52.916;6.542;2022-08-03T01:11:33;19.40;99.90
57108;DHT22;42987;52.916;6.542;2022-08-03T01:17:21;19.20;99.90
57108;DHT22;42987;52.916;6.542;2022-08-03T01:25:39;19.10;99.90
57108;DHT22;42987;52.916;6.542;2022-08-03T01:28:32;19.00;99.90
57108;DHT22;42987;52.916;6.542;2022-08-03T01:31:06;19.00;99.90
57108;DHT22;42987;52.916;6.542;2022-08-03T01:33:45;19.00;99.90
57108;DHT22;42987;52.916;6.542;2022-08-03T01:36:21;19.00;99.90
57108;DHT22;42987;52.916;6.542;2022-08-03T01:38:52;18.90;99.90
57108;DHT22;42987;52.916;6.542;2022-08-03T01:41:20;18.90;99.90
57108;DHT22;42987;52.916;6.542;2022-08-03T01:43:48;18.90;99.90
57108;DHT22;42987;52.916;6.542;2022-08-03T01:46:16;18.80;99.90
57108;DHT22;42987;52.916;6.542;2022-08-03T01:48:46;18.80;99.90
57108;DHT22;42987;52.916;6.542;2022-08-03T01:51:12;18.80;99.90
57108;DHT22;42987;52.916;6.542;2022-08-03T01:53:40;18.80;99.90
57108;DHT22;42987;52.916;6.542;2022-08-03T01:56:09;18.80;99.90
57108;DHT22;42987;52.916;6.542;2022-08-03T01:58:36;18.80;99.90
57108;DHT22;42987;52.916;6.542;2022-08-03T02:01:04;18.80;99.90
57108;DHT22;42987;52.916;6.542;2022-08-03T02:03:35;18.80;99.90
57108;DHT22;42987;52.916;6.542;2022-08-03T02:06:02;18.70;99.90
57108;DHT22;42987;52.916;6.542;2022-08-03T02:08:28;18.70;99.90
57108;DHT22;42987;52.916;6.542;2022-08-03T02:10:56;18.70;99.90
57108;DHT22;42987;52.916;6.542;2022-08-03T02:13:29;18.70;99.90
57108;DHT22;42987;52.916;6.542;2022-08-03T02:15:58;18.70;99.90
57108;DHT22;42987;52.916;6.542;2022-08-03T02:18:28;18.70;99.90
57108;DHT22;42987;52.916;6.542;2022-08-03T02:20:55;18.70;99.90
57108;DHT22;42987;52.916;6.542;2022-08-03T02:23:24;18.70;99.90
57108;DHT22;42987;52.916;6.542;2022-08-03T02:25:57;18.60;99.90
57108;DHT22;42987;52.916;6.542;2022-08-03T02:28:31;18.70;99.90
57108;DHT22;42987;52.916;6.542;2022-08-03T02:30:57;18.60;99.90
57108;DHT22;42987;52.916;6.542;2022-08-03T02:33:31;18.60;99.90
57108;DHT22;42987;52.916;6.542;2022-08-03T02:35:59;18.50;99.90
57108;DHT22;42987;52.916;6.542;2022-08-03T02:38:31;18.50;99.90
57108;DHT22;42987;52.916;6.542;2022-08-03T02:40:58;18.50;99.90
57108;DHT22;42987;52.916;6.542;2022-08-03T02:43:29;18.60;99.90
57108;DHT22;42987;52.916;6.542;2022-08-03T02:45:56;18.50;99.90
57108;DHT22;42987;52.916;6.542;2022-08-03T02:48:28;18.50;99.90
57108;DHT22;42987;52.916;6.542;2022-08-03T02:50:57;18.50;99.90
57108;DHT22;42987;52.916;6.542;2022-08-03T02:53:25;18.50;99.90
57108;DHT22;42987;52.916;6.542;2022-08-03T02:55:55;18.60;99.90
57108;DHT22;42987;52.916;6.542;2022-08-03T02:58:22;18.50;99.90
57108;DHT22;42987;52.916;6.542;2022-08-03T03:00:50;18.50;99.90
57108;DHT22;42987;52.916;6.542;2022-08-03T03:03:17;18.50;99.90
57108;DHT22;42987;52.916;6.542;2022-08-03T03:05:43;18.50;99.90
57108;DHT22;42987;52.916;6.542;2022-08-03T03:08:13;18.60;99.90
57108;DHT22;42987;52.916;6.542;2022-08-03T03:10:40;18.50;99.90
57108;DHT22;42987;52.916;6.542;2022-08-03T03:13:06;18.50;99.90
57108;DHT22;42987;52.916;6.542;2022-08-03T03:15:34;18.50;99.90
57108;DHT22;42987;52.916;6.542;2022-08-03T03:18:02;18.50;99.90
57108;DHT22;42987;52.916;6.542;2022-08-03T03:20:32;18.40;99.90
57108;DHT22;42987;52.916;6.542;2022-08-03T03:23:01;18.40;99.90
57108;DHT22;42987;52.916;6.542;2022-08-03T03:25:29;18.40;99.90
57108;DHT22;42987;52.916;6.542;2022-08-03T03:28:00;18.40;99.90
57108;DHT22;42987;52.916;6.542;2022-08-03T03:30:28;18.30;99.90
57108;DHT22;42987;52.916;6.542;2022-08-03T03:32:54;18.30;99.90
57108;DHT22;42987;52.916;6.542;2022-08-03T03:35:25;18.30;99.90
57108;DHT22;42987;52.916;6.542;2022-08-03T03:37:51;18.30;99.90
57108;DHT22;42987;52.916;6.542;2022-08-03T03:40:21;18.30;99.90
57108;DHT22;42987;52.916;6.542;2022-08-03T03:42:47;18.30;99.90
57108;DHT22;42987;52.916;6.542;2022-08-03T03:45:14;18.30;99.90
57108;DHT22;42987;52.916;6.542;2022-08-03T03:47:40;18.30;99.90
57108;DHT22;42987;52.916;6.542;2022-08-03T03:50:06;18.20;99.90
57108;DHT22;42987;52.916;6.542;2022-08-03T03:52:32;18.20;99.90
57108;DHT22;42987;52.916;6.542;2022-08-03T03:54:59;18.20;99.90
57108;DHT22;42987;52.916;6.542;2022-08-03T03:57:24;18.20;99.90
57108;DHT22;42987;52.916;6.542;2022-08-03T03:59:50;18.20;99.90
57108;DHT22;42987;52.916;6.542;2022-08-03T04:02:17;18.20;99.90
57108;DHT22;42987;52.916;6.542;2022-08-03T04:04:42;18.20;99.90
57108;DHT22;42987;52.916;6.542;2022-08-03T04:07:27;18.20;99.90
57108;DHT22;42987;52.916;6.542;2022-08-03T04:10:22;18.20;99.90
57108;DHT22;42987;52.916;6.542;2022-08-03T04:13:11;18.20;99.90
57108;DHT22;42987;52.916;6.542;2022-08-03T04:15:39;18.10;99.90
57108;DHT22;42987;52.916;6.542;2022-08-03T04:18:08;18.10;99.90
57108;DHT22;42987;52.916;6.542;2022-08-03T04:20:37;18.10;99.90
57108;DHT22;42987;52.916;6.542;2022-08-03T04:23:06;18.20;99.90
57108;DHT22;42987;52.916;6.542;2022-08-03T04:25:33;18.10;99.90
57108;DHT22;42987;52.916;6.542;2022-08-03T04:28:02;18.20;99.90
57108;DHT22;42987;52.916;6.542;2022-08-03T04:30:31;18.20;99.90
57108;DHT22;42987;52.916;6.542;2022-08-03T04:33:00;18.20;99.90
57108;DHT22;42987;52.916;6.542;2022-08-03T04:35:30;18.20;99.90
57108;DHT22;42987;52.916;6.542;2022-08-03T04:38:01;18.20;99.90
57108;DHT22;42987;52.916;6.542;2022-08-03T04:40:33;18.20;99.90
57108;DHT22;42987;52.916;6.542;2022-08-03T04:42:59;18.30;99.90
57108;DHT22;42987;52.916;6.542;2022-08-03T04:45:27;18.30;99.90
57108;DHT22;42987;52.916;6.542;2022-08-03T04:47:54;18.30;99.90
57108;DHT22;42987;52.916;6.542;2022-08-03T04:50:21;18.30;99.90
57108;DHT22;42987;52.916;6.542;2022-08-03T04:52:47;18.30;99.90
57108;DHT22;42987;52.916;6.542;2022-08-03T04:55:31;18.30;99.90
57108;DHT22;42987;52.916;6.542;2022-08-03T04:57:58;18.30;99.90
57108;DHT22;42987;52.916;6.542;2022-08-03T05:00:24;18.40;99.90
57108;DHT22;42987;52.916;6.542;2022-08-03T05:02:53;18.40;99.90
57108;DHT22;42987;52.916;6.542;2022-08-03T05:05:20;18.40;99.90
57108;DHT22;42987;52.916;6.542;2022-08-03T05:07:46;18.50;99.90
57108;DHT22;42987;52.916;6.542;2022-08-03T05:10:13;18.50;99.90
57108;DHT22;42987;52.916;6.542;2022-08-03T05:12:39;18.50;99.90
57108;DHT22;42987;52.916;6.542;2022-08-03T05:15:06;18.50;99.90
57108;DHT22;42987;52.916;6.542;2022-08-03T05:17:32;18.50;99.90
57108;DHT22;42987;52.916;6.542;2022-08-03T05:20:02;18.50;99.90
57108;DHT22;42987;52.916;6.542;2022-08-03T05:22:31;18.60;99.90
57108;DHT22;42987;52.916;6.542;2022-08-03T05:24:57;18.60;99.90
57108;DHT22;42987;52.916;6.542;2022-08-03T05:27:26;18.70;99.90
57108;DHT22;42987;52.916;6.542;2022-08-03T05:29:54;18.70;99.90
57108;DHT22;42987;52.916;6.542;2022-08-03T05:32:20;18.70;99.90
57108;DHT22;42987;52.916;6.542;2022-08-03T05:34:46;18.80;99.90
57108;DHT22;42987;52.916;6.542;2022-08-03T05:37:12;18.80;99.90
57108;DHT22;42987;52.916;6.542;2022-08-03T05:39:38;18.80;99.90
57108;DHT22;42987;52.916;6.542;2022-08-03T05:42:03;18.90;99.90
57108;DHT22;42987;52.916;6.542;2022-08-03T05:44:29;18.90;99.90
57108;DHT22;42987;52.916;6.542;2022-08-03T05:46:57;19.00;99.90
57108;DHT22;42987;52.916;6.542;2022-08-03T05:49:23;19.00;99.90
57108;DHT22;42987;52.916;6.542;2022-08-03T05:51:48;19.10;99.90
57108;DHT22;42987;52.916;6.542;2022-08-03T05:54:14;19.10;99.90
57108;DHT22;42987;52.916;6.542;2022-08-03T05:56:40;19.10;99.90
57108;DHT22;42987;52.916;6.542;2022-08-03T05:59:06;19.10;99.90
57108;DHT22;42987;52.916;6.542;2022-08-03T06:01:35;19.20;99.90
57108;DHT22;42987;52.916;6.542;2022-08-03T06:04:03;19.20;99.90
57108;DHT22;42987;52.916;6.542;2022-08-03T06:06:29;19.20;99.90
57108;DHT22;42987;52.916;6.542;2022-08-03T06:08:55;19.30;99.90
57108;DHT22;42987;52.916;6.542;2022-08-03T06:11:21;19.30;99.90
57108;DHT22;42987;52.916;6.542;2022-08-03T06:13:47;19.50;99.90
57108;DHT22;42987;52.916;6.542;2022-08-03T06:16:15;19.50;99.90
57108;DHT22;42987;52.916;6.542;2022-08-03T06:18:41;19.70;99.90
57108;DHT22;42987;52.916;6.542;2022-08-03T06:21:07;19.70;99.90
57108;DHT22;42987;52.916;6.542;2022-08-03T06:23:38;19.70;99.90
57108;DHT22;42987;52.916;6.542;2022-08-03T06:26:04;19.70;99.90
57108;DHT22;42987;52.916;6.542;2022-08-03T06:28:29;19.80;99.90
57108;DHT22;42987;52.916;6.542;2022-08-03T06:30:55;19.80;99.90
57108;DHT22;42987;52.916;6.542;2022-08-03T06:33:24;19.90;99.90
57108;DHT22;42987;52.916;6.542;2022-08-03T06:35:51;19.90;99.90
57108;DHT22;42987;52.916;6.542;2022-08-03T06:38:17;20.00;99.90
57108;DHT22;42987;52.916;6.542;2022-08-03T06:40:42;20.00;99.90
57108;DHT22;42987;52.916;6.542;2022-08-03T06:43:11;20.00;99.90
57108;DHT22;42987;52.916;6.542;2022-08-03T06:45:39;20.10;99.90
57108;DHT22;42987;52.916;6.542;2022-08-03T06:48:09;20.10;99.90
57108;DHT22;42987;52.916;6.542;2022-08-03T06:50:40;20.20;99.90
57108;DHT22;42987;52.916;6.542;2022-08-03T06:53:06;20.20;99.90
57108;DHT22;42987;52.916;6.542;2022-08-03T06:55:55;20.30;99.90
57108;DHT22;42987;52.916;6.542;2022-08-03T06:58:22;20.30;99.90
57108;DHT22;42987;52.916;6.542;2022-08-03T07:00:48;20.30;99.90
57108;DHT22;42987;52.916;6.542;2022-08-03T07:03:14;20.30;99.90
57108;DHT22;42987;52.916;6.542;2022-08-03T07:05:41;20.30;99.90
57108;DHT22;42987;52.916;6.542;2022-08-03T07:08:06;20.40;99.90
57108;DHT22;42987;52.916;6.542;2022-08-03T07:10:32;20.40;99.90
57108;DHT22;42987;52.916;6.542;2022-08-03T07:13:01;20.50;99.90
57108;DHT22;42987;52.916;6.542;2022-08-03T07:15:26;20.50;99.90
57108;DHT22;42987;52.916;6.542;2022-08-03T07:17:56;20.60;99.90
57108;DHT22;42987;52.916;6.542;2022-08-03T07:20:24;20.70;99.90
57108;DHT22;42987;52.916;6.542;2022-08-03T07:22:50;20.70;99.90
57108;DHT22;42987;52.916;6.542;2022-08-03T07:25:16;20.70;99.90
57108;DHT22;42987;52.916;6.542;2022-08-03T07:27:46;20.80;99.90
57108;DHT22;42987;52.916;6.542;2022-08-03T07:30:13;20.90;99.90
57108;DHT22;42987;52.916;6.542;2022-08-03T07:32:39;21.00;99.90
57108;DHT22;42987;52.916;6.542;2022-08-03T07:35:06;21.10;99.90
57108;DHT22;42987;52.916;6.542;2022-08-03T07:37:32;21.20;99.90
57108;DHT22;42987;52.916;6.542;2022-08-03T07:40:00;21.30;99.90
57108;DHT22;42987;52.916;6.542;2022-08-03T07:42:29;21.40;99.90
57108;DHT22;42987;52.916;6.542;2022-08-03T07:44:56;21.50;99.90
57108;DHT22;42987;52.916;6.542;2022-08-03T07:47:23;21.60;99.90
57108;DHT22;42987;52.916;6.542;2022-08-03T07:49:50;21.80;99.90
57108;DHT22;42987;52.916;6.542;2022-08-03T07:52:16;21.80;99.90
57108;DHT22;42987;52.916;6.542;2022-08-03T07:55:05;21.90;99.90
57108;DHT22;42987;52.916;6.542;2022-08-03T07:57:32;22.00;99.90
57108;DHT22;42987;52.916;6.542;2022-08-03T07:59:57;22.10;99.90
57108;DHT22;42987;52.916;6.542;2022-08-03T08:02:26;22.30;99.90
57108;DHT22;42987;52.916;6.542;2022-08-03T08:04:55;22.40;99.90
57108;DHT22;42987;52.916;6.542;2022-08-03T08:07:21;22.50;99.90
57108;DHT22;42987;52.916;6.542;2022-08-03T08:09:47;22.60;99.90
57108;DHT22;42987;52.916;6.542;2022-08-03T08:12:13;22.70;99.90
57108;DHT22;42987;52.916;6.542;2022-08-03T08:14:38;22.80;99.90
57108;DHT22;42987;52.916;6.542;2022-08-03T08:17:06;22.90;99.90
57108;DHT22;42987;52.916;6.542;2022-08-03T08:19:32;23.00;99.90
57108;DHT22;42987;52.916;6.542;2022-08-03T08:21:57;23.10;99.90
57108;DHT22;42987;52.916;6.542;2022-08-03T08:24:23;23.30;99.90
57108;DHT22;42987;52.916;6.542;2022-08-03T08:26:49;23.50;99.90
57108;DHT22;42987;52.916;6.542;2022-08-03T08:29:15;23.60;99.90
57108;DHT22;42987;52.916;6.542;2022-08-03T08:31:43;23.70;99.90
57108;DHT22;42987;52.916;6.542;2022-08-03T08:34:09;23.70;99.90
57108;DHT22;42987;52.916;6.542;2022-08-03T08:36:35;23.80;99.90
57108;DHT22;42987;52.916;6.542;2022-08-03T08:39:01;23.80;99.90
57108;DHT22;42987;52.916;6.542;2022-08-03T08:41:27;23.80;99.90
57108;DHT22;42987;52.916;6.542;2022-08-03T08:43:53;23.90;99.90
57108;DHT22;42987;52.916;6.542;2022-08-03T08:46:20;23.90;99.90
57108;DHT22;42987;52.916;6.542;2022-08-03T08:48:47;24.00;99.90
57108;DHT22;42987;52.916;6.542;2022-08-03T08:51:15;24.00;99.90
57108;DHT22;42987;52.916;6.542;2022-08-03T08:53:48;24.10;99.90
57108;DHT22;42987;52.916;6.542;2022-08-03T08:56:16;24.20;99.90
57108;DHT22;42987;52.916;6.542;2022-08-03T08:58:56;24.30;99.90
57108;DHT22;42987;52.916;6.542;2022-08-03T09:01:27;24.40;99.90
57108;DHT22;42987;52.916;6.542;2022-08-03T09:03:55;24.50;99.90
57108;DHT22;42987;52.916;6.542;2022-08-03T09:06:24;24.60;99.90
57108;DHT22;42987;52.916;6.542;2022-08-03T09:08:50;24.70;99.90
57108;DHT22;42987;52.916;6.542;2022-08-03T09:11:20;24.80;99.90
57108;DHT22;42987;52.916;6.542;2022-08-03T09:13:47;24.80;99.90
57108;DHT22;42987;52.916;6.542;2022-08-03T09:16:21;24.90;99.90
57108;DHT22;42987;52.916;6.542;2022-08-03T09:18:54;25.10;99.90
57108;DHT22;42987;52.916;6.542;2022-08-03T09:21:27;25.20;99.90
57108;DHT22;42987;52.916;6.542;2022-08-03T09:23:57;25.20;99.90
57108;DHT22;42987;52.916;6.542;2022-08-03T09:26:28;25.30;99.90
57108;DHT22;42987;52.916;6.542;2022-08-03T09:31:38;25.50;99.90
57108;DHT22;42987;52.916;6.542;2022-08-03T09:34:06;25.70;99.90
57108;DHT22;42987;52.916;6.542;2022-08-03T09:36:37;25.80;99.90
57108;DHT22;42987;52.916;6.542;2022-08-03T09:39:08;25.90;99.90
57108;DHT22;42987;52.916;6.542;2022-08-03T09:41:40;26.00;99.90
57108;DHT22;42987;52.916;6.542;2022-08-03T09:44:07;26.20;99.90
57108;DHT22;42987;52.916;6.542;2022-08-03T09:47:03;26.30;99.90
57108;DHT22;42987;52.916;6.542;2022-08-03T09:49:29;26.40;99.90
57108;DHT22;42987;52.916;6.542;2022-08-03T09:51:55;26.50;99.90
57108;DHT22;42987;52.916;6.542;2022-08-03T09:54:28;26.60;99.90
57108;DHT22;42987;52.916;6.542;2022-08-03T09:56:54;26.70;99.90
57108;DHT22;42987;52.916;6.542;2022-08-03T09:59:28;26.90;99.90
57108;DHT22;42987;52.916;6.542;2022-08-03T10:01:55;27.00;99.90
57108;DHT22;42987;52.916;6.542;2022-08-03T10:04:25;27.10;99.90
57108;DHT22;42987;52.916;6.542;2022-08-03T10:07:01;27.10;99.90
57108;DHT22;42987;52.916;6.542;2022-08-03T10:09:28;27.30;99.90
57108;DHT22;42987;52.916;6.542;2022-08-03T10:11:54;27.40;99.90
57108;DHT22;42987;52.916;6.542;2022-08-03T10:14:20;27.40;99.90
57108;DHT22;42987;52.916;6.542;2022-08-03T10:16:51;27.40;99.90
57108;DHT22;42987;52.916;6.542;2022-08-03T10:19:16;27.50;99.90
57108;DHT22;42987;52.916;6.542;2022-08-03T10:21:49;27.60;99.90
57108;DHT22;42987;52.916;6.542;2022-08-03T10:24:18;27.70;99.90
57108;DHT22;42987;52.916;6.542;2022-08-03T10:26:45;27.70;99.90
57108;DHT22;42987;52.916;6.542;2022-08-03T10:29:17;27.60;99.90
57108;DHT22;42987;52.916;6.542;2022-08-03T10:31:45;27.70;99.90
57108;DHT22;42987;52.916;6.542;2022-08-03T10:34:20;27.80;99.90
57108;DHT22;42987;52.916;6.542;2022-08-03T10:36:48;28.10;99.90
57108;DHT22;42987;52.916;6.542;2022-08-03T10:39:18;28.20;99.90
57108;DHT22;42987;52.916;6.542;2022-08-03T10:41:46;28.20;99.90
57108;DHT22;42987;52.916;6.542;2022-08-03T10:44:17;28.30;99.90
57108;DHT22;42987;52.916;6.542;2022-08-03T10:46:44;28.30;99.90
57108;DHT22;42987;52.916;6.542;2022-08-03T10:49:16;28.40;99.90
57108;DHT22;42987;52.916;6.542;2022-08-03T10:51:44;28.40;99.90
57108;DHT22;42987;52.916;6.542;2022-08-03T10:54:42;28.40;99.90
57108;DHT22;42987;52.916;6.542;2022-08-03T10:57:47;28.40;99.90
57108;DHT22;42987;52.916;6.542;2022-08-03T11:00:15;28.50;99.90
57108;DHT22;42987;52.916;6.542;2022-08-03T11:05:27;28.70;99.90
57108;DHT22;42987;52.916;6.542;2022-08-03T11:08:21;28.70;99.90
57108;DHT22;42987;52.916;6.542;2022-08-03T11:10:51;28.80;99.90
57108;DHT22;42987;52.916;6.542;2022-08-03T11:13:19;28.90;99.90
57108;DHT22;42987;52.916;6.542;2022-08-03T11:15:47;28.80;99.90
57108;DHT22;42987;52.916;6.542;2022-08-03T11:18:13;28.80;99.90
57108;DHT22;42987;52.916;6.542;2022-08-03T11:20:50;28.70;99.90
57108;DHT22;42987;52.916;6.542;2022-08-03T11:23:39;28.70;99.90
57108;DHT22;42987;52.916;6.542;2022-08-03T11:26:14;28.50;97.60
57108;DHT22;42987;52.916;6.542;2022-08-03T11:28:41;28.40;98.30
57108;DHT22;42987;52.916;6.542;2022-08-03T11:34:05;28.30;99.90
57108;DHT22;42987;52.916;6.542;2022-08-03T11:39:40;28.30;99.90
57108;DHT22;42987;52.916;6.542;2022-08-03T11:44:59;28.40;99.90
57108;DHT22;42987;52.916;6.542;2022-08-03T11:47:27;28.60;99.90
57108;DHT22;42987;52.916;6.542;2022-08-03T11:49:55;28.90;99.90
57108;DHT22;42987;52.916;6.542;2022-08-03T11:52:23;29.00;98.90
57108;DHT22;42987;52.916;6.542;2022-08-03T11:54:51;29.10;98.70
57108;DHT22;42987;52.916;6.542;2022-08-03T11:57:30;29.10;98.30
57108;DHT22;42987;52.916;6.542;2022-08-03T11:59:56;29.30;99.30
57108;DHT22;42987;52.916;6.542;2022-08-03T12:02:22;29.30;99.10
57108;DHT22;42987;52.916;6.542;2022-08-03T12:04:57;29.40;98.40
57108;DHT22;42987;52.916;6.542;2022-08-03T12:07:27;29.50;96.40
57108;DHT22;42987;52.916;6.542;2022-08-03T12:12:36;29.50;93.90
57108;DHT22;42987;52.916;6.542;2022-08-03T12:15:03;29.70;94.00
57108;DHT22;42987;52.916;6.542;2022-08-03T12:17:36;29.70;94.10
57108;DHT22;42987;52.916;6.542;2022-08-03T12:20:04;29.80;93.20
57108;DHT22;42987;52.916;6.542;2022-08-03T12:22:34;29.90;93.30
57108;DHT22;42987;52.916;6.542;2022-08-03T12:25:02;30.00;96.70
57108;DHT22;42987;52.916;6.542;2022-08-03T12:27:28;30.20;94.90
57108;DHT22;42987;52.916;6.542;2022-08-03T12:29:55;30.30;91.80
57108;DHT22;42987;52.916;6.542;2022-08-03T12:32:23;30.30;90.10
57108;DHT22;42987;52.916;6.542;2022-08-03T12:34:50;30.30;88.30
57108;DHT22;42987;52.916;6.542;2022-08-03T12:37:21;30.30;84.70
57108;DHT22;42987;52.916;6.542;2022-08-03T12:39:56;30.30;77.10
57108;DHT22;42987;52.916;6.542;2022-08-03T12:42:34;30.20;75.70
57108;DHT22;42987;52.916;6.542;2022-08-03T12:47:57;30.30;88.30
57108;DHT22;42987;52.916;6.542;2022-08-03T12:52:53;30.30;72.90
57108;DHT22;42987;52.916;6.542;2022-08-03T12:55:20;30.30;71.30
57108;DHT22;42987;52.916;6.542;2022-08-03T12:57:49;30.30;70.10
57108;DHT22;42987;52.916;6.542;2022-08-03T13:00:20;30.30;69.60
57108;DHT22;42987;52.916;6.542;2022-08-03T13:03:01;30.30;69.90
57108;DHT22;42987;52.916;6.542;2022-08-03T13:05:30;30.40;73.50
57108;DHT22;42987;52.916;6.542;2022-08-03T13:07:59;30.50;72.00
57108;DHT22;42987;52.916;6.542;2022-08-03T13:10:32;30.50;69.20
57108;DHT22;42987;52.916;6.542;2022-08-03T13:12:58;30.50;72.30
57108;DHT22;42987;52.916;6.542;2022-08-03T13:15:28;30.60;74.30
57108;DHT22;42987;52.916;6.542;2022-08-03T13:17:55;30.70;74.20
57108;DHT22;42987;52.916;6.542;2022-08-03T13:20:24;30.70;73.20
57108;DHT22;42987;52.916;6.542;2022-08-03T13:22:50;30.70;71.50
57108;DHT22;42987;52.916;6.542;2022-08-03T13:25:16;30.80;70.10
57108;DHT22;42987;52.916;6.542;2022-08-03T13:27:42;30.80;69.30
57108;DHT22;42987;52.916;6.542;2022-08-03T13:30:09;30.90;70.10
57108;DHT22;42987;52.916;6.542;2022-08-03T13:32:35;30.80;68.00
57108;DHT22;42987;52.916;6.542;2022-08-03T13:35:01;30.80;71.10
57108;DHT22;42987;52.916;6.542;2022-08-03T13:37:28;30.80;67.50
57108;DHT22;42987;52.916;6.542;2022-08-03T13:39:56;30.80;68.30
57108;DHT22;42987;52.916;6.542;2022-08-03T13:42:30;30.70;69.90
57108;DHT22;42987;52.916;6.542;2022-08-03T13:44:57;30.60;71.10
57108;DHT22;42987;52.916;6.542;2022-08-03T13:47:27;30.50;66.10
57108;DHT22;42987;52.916;6.542;2022-08-03T13:49:53;30.40;67.70
57108;DHT22;42987;52.916;6.542;2022-08-03T13:52:19;30.40;70.20
57108;DHT22;42987;52.916;6.542;2022-08-03T13:54:45;30.40;72.20
57108;DHT22;42987;52.916;6.542;2022-08-03T13:57:10;30.40;72.60
57108;DHT22;42987;52.916;6.542;2022-08-03T13:59:37;30.40;74.70
57108;DHT22;42987;52.916;6.542;2022-08-03T14:02:03;30.50;72.60
57108;DHT22;42987;52.916;6.542;2022-08-03T14:04:32;30.40;70.30
57108;DHT22;42987;52.916;6.542;2022-08-03T14:06:58;30.40;69.90
57108;DHT22;42987;52.916;6.542;2022-08-03T14:09:23;30.50;68.10
57108;DHT22;42987;52.916;6.542;2022-08-03T14:11:49;30.40;67.90
57108;DHT22;42987;52.916;6.542;2022-08-03T14:14:15;30.50;72.90
57108;DHT22;42987;52.916;6.542;2022-08-03T14:16:41;30.50;72.80
57108;DHT22;42987;52.916;6.542;2022-08-03T14:19:13;30.60;70.20
57108;DHT22;42987;52.916;6.542;2022-08-03T14:21:40;30.60;69.50
57108;DHT22;42987;52.916;6.542;2022-08-03T14:24:06;30.60;68.10
57108;DHT22;42987;52.916;6.542;2022-08-03T14:26:35;30.50;70.10
57108;DHT22;42987;52.916;6.542;2022-08-03T14:29:01;30.40;68.50
57108;DHT22;42987;52.916;6.542;2022-08-03T14:31:26;30.40;68.00
57108;DHT22;42987;52.916;6.542;2022-08-03T14:33:55;30.30;67.60
57108;DHT22;42987;52.916;6.542;2022-08-03T14:36:21;30.30;69.50
57108;DHT22;42987;52.916;6.542;2022-08-03T14:38:47;30.40;68.70
57108;DHT22;42987;52.916;6.542;2022-08-03T14:41:16;30.40;69.20
57108;DHT22;42987;52.916;6.542;2022-08-03T14:43:41;30.50;69.30
57108;DHT22;42987;52.916;6.542;2022-08-03T14:46:07;30.60;70.00
57108;DHT22;42987;52.916;6.542;2022-08-03T14:48:33;30.60;68.80
57108;DHT22;42987;52.916;6.542;2022-08-03T14:50:59;30.60;66.80
57108;DHT22;42987;52.916;6.542;2022-08-03T14:53:25;30.70;67.10
57108;DHT22;42987;52.916;6.542;2022-08-03T14:55:51;30.60;65.90
57108;DHT22;42987;52.916;6.542;2022-08-03T14:58:22;30.60;65.60
57108;DHT22;42987;52.916;6.542;2022-08-03T15:00:50;30.50;65.90
57108;DHT22;42987;52.916;6.542;2022-08-03T15:03:18;30.40;66.10
57108;DHT22;42987;52.916;6.542;2022-08-03T15:05:56;30.30;64.00
57108;DHT22;42987;52.916;6.542;2022-08-03T15:08:23;30.20;63.20
57108;DHT22;42987;52.916;6.542;2022-08-03T15:10:49;30.20;64.20
57108;DHT22;42987;52.916;6.542;2022-08-03T15:13:19;30.20;65.10
57108;DHT22;42987;52.916;6.542;2022-08-03T15:15:45;30.20;64.10
57108;DHT22;42987;52.916;6.542;2022-08-03T15:18:12;30.20;64.80
57108;DHT22;42987;52.916;6.542;2022-08-03T15:20:37;30.10;64.50
57108;DHT22;42987;52.916;6.542;2022-08-03T15:23:03;29.90;65.40
57108;DHT22;42987;52.916;6.542;2022-08-03T15:25:29;29.90;65.50
57108;DHT22;42987;52.916;6.542;2022-08-03T15:27:55;29.90;65.60
57108;DHT22;42987;52.916;6.542;2022-08-03T15:30:21;29.90;66.20
57108;DHT22;42987;52.916;6.542;2022-08-03T15:32:47;29.90;67.10
57108;DHT22;42987;52.916;6.542;2022-08-03T15:35:12;29.90;67.50
57108;DHT22;42987;52.916;6.542;2022-08-03T15:37:38;30.10;65.30
57108;DHT22;42987;52.916;6.542;2022-08-03T15:40:05;30.20;65.80
57108;DHT22;42987;52.916;6.542;2022-08-03T15:42:32;30.30;64.40
57108;DHT22;42987;52.916;6.542;2022-08-03T15:44:58;30.40;64.20
57108;DHT22;42987;52.916;6.542;2022-08-03T15:47:24;30.40;63.60
57108;DHT22;42987;52.916;6.542;2022-08-03T15:49:50;30.40;65.50
57108;DHT22;42987;52.916;6.542;2022-08-03T15:52:16;30.40;66.50
57108;DHT22;42987;52.916;6.542;2022-08-03T15:54:42;30.50;64.30
57108;DHT22;42987;52.916;6.542;2022-08-03T15:57:07;30.50;64.30
57108;DHT22;42987;52.916;6.542;2022-08-03T15:59:34;30.40;65.60
57108;DHT22;42987;52.916;6.542;2022-08-03T16:01:59;30.40;64.40
57108;DHT22;42987;52.916;6.542;2022-08-03T16:04:25;30.30;63.20
57108;DHT22;42987;52.916;6.542;2022-08-03T16:06:51;30.20;62.40
57108;DHT22;42987;52.916;6.542;2022-08-03T16:09:20;30.10;63.80